AFL1215 UWWW-USCC
Flight info
| Callsign | AFL1215 |
|---|---|
| Flight time | 1h 6m |
| Altitude | 37000 |
| Route | PIRIK P135 BUGOT L749 LUTAT |
| Aircraft | A319/M-V/N |
Departure
| Time | 2026-04-30 02:23 |
|---|---|
| Airport | Kurumoch International Airport (UWWW) |
Arrival
| Time | 2026-04-30 03:30 |
|---|---|
| Airport | Kurchatov Chelyabinsk International Airport (USCC) |
| Time | Latitude | Longitude | Altitude | Speed | Heading |
|---|---|---|---|---|---|
| 2026-04-30 02:13 | 53.50937 | 50.15690 | 492 ft | 0 kts | 152° |
| 2026-04-30 02:19 | 53.50932 | 50.15694 | 492 ft | 1 kts | 151° |
| 2026-04-30 02:19 | 53.50915 | 50.15719 | 492 ft | 4 kts | 135° |
| 2026-04-30 02:20 | 53.50911 | 50.15767 | 492 ft | 5 kts | 44° |
| 2026-04-30 02:20 | 53.50957 | 50.15762 | 492 ft | 8 kts | 329° |
| 2026-04-30 02:20 | 53.51016 | 50.15741 | 492 ft | 10 kts | 30° |
| 2026-04-30 02:20 | 53.51059 | 50.15845 | 492 ft | 12 kts | 60° |
| 2026-04-30 02:21 | 53.51103 | 50.15978 | 492 ft | 13 kts | 62° |
| 2026-04-30 02:21 | 53.51150 | 50.16127 | 492 ft | 15 kts | 62° |
| 2026-04-30 02:21 | 53.51203 | 50.16291 | 492 ft | 16 kts | 61° |
| 2026-04-30 02:21 | 53.51260 | 50.16467 | 492 ft | 17 kts | 61° |
| 2026-04-30 02:22 | 53.51321 | 50.16652 | 492 ft | 18 kts | 60° |
| 2026-04-30 02:22 | 53.51386 | 50.16844 | 492 ft | 19 kts | 60° |
| 2026-04-30 02:22 | 53.51452 | 50.17040 | 492 ft | 13 kts | 70° |
| 2026-04-30 02:22 | 53.51382 | 50.17132 | 492 ft | 17 kts | 160° |
| 2026-04-30 02:23 | 53.51053 | 50.17316 | 493 ft | 90 kts | 161° |
| 2026-04-30 02:23 | 53.50235 | 50.17813 | 498 ft | 156 kts | 158° |
| 2026-04-30 02:23 | 53.49175 | 50.18506 | 1129 ft | 164 kts | 160° |
| 2026-04-30 02:23 | 53.48136 | 50.19164 | 1972 ft | 162 kts | 163° |
| 2026-04-30 02:24 | 53.47068 | 50.19788 | 2587 ft | 170 kts | 163° |
| 2026-04-30 02:24 | 53.45911 | 50.20452 | 3076 ft | 186 kts | 163° |
| 2026-04-30 02:24 | 53.44620 | 50.21201 | 3550 ft | 207 kts | 163° |
| 2026-04-30 02:24 | 53.43200 | 50.22033 | 4081 ft | 228 kts | 163° |
| 2026-04-30 02:25 | 53.41653 | 50.22948 | 4708 ft | 247 kts | 162° |
| 2026-04-30 02:25 | 53.40064 | 50.24253 | 5358 ft | 267 kts | 149° |
| 2026-04-30 02:25 | 53.38567 | 50.26193 | 6297 ft | 275 kts | 142° |
| 2026-04-30 02:25 | 53.37112 | 50.28301 | 7204 ft | 280 kts | 141° |
| 2026-04-30 02:26 | 53.35644 | 50.30446 | 7799 ft | 283 kts | 142° |
| 2026-04-30 02:26 | 53.34170 | 50.32579 | 8115 ft | 284 kts | 142° |
| 2026-04-30 02:26 | 53.32673 | 50.34724 | 8160 ft | 283 kts | 143° |
| 2026-04-30 02:26 | 53.31163 | 50.36872 | 8170 ft | 283 kts | 143° |
| 2026-04-30 02:27 | 53.29665 | 50.38999 | 8164 ft | 283 kts | 143° |
| 2026-04-30 02:27 | 53.28175 | 50.41113 | 8170 ft | 283 kts | 142° |
| 2026-04-30 02:27 | 53.26882 | 50.43670 | 8352 ft | 299 kts | 119° |
| 2026-04-30 02:27 | 53.26306 | 50.47010 | 9306 ft | 305 kts | 100° |
| 2026-04-30 02:28 | 53.26027 | 50.50482 | 10367 ft | 305 kts | 99° |
| 2026-04-30 02:28 | 53.25762 | 50.54030 | 11018 ft | 318 kts | 99° |
| 2026-04-30 02:28 | 53.25467 | 50.57792 | 11501 ft | 336 kts | 100° |
| 2026-04-30 02:28 | 53.25149 | 50.61698 | 12185 ft | 345 kts | 101° |
| 2026-04-30 02:29 | 53.24822 | 50.65651 | 12967 ft | 350 kts | 102° |
| 2026-04-30 02:29 | 53.24480 | 50.69722 | 13748 ft | 354 kts | 102° |
| 2026-04-30 02:29 | 53.24136 | 50.73756 | 14500 ft | 358 kts | 103° |
| 2026-04-30 02:29 | 53.23780 | 50.77901 | 15288 ft | 362 kts | 103° |
| 2026-04-30 02:30 | 53.23552 | 50.82051 | 16017 ft | 370 kts | 90° |
| 2026-04-30 02:30 | 53.24224 | 50.86223 | 16738 ft | 380 kts | 63° |
| 2026-04-30 02:30 | 53.25898 | 50.89593 | 17466 ft | 383 kts | 36° |
| 2026-04-30 02:30 | 53.28232 | 50.91715 | 18151 ft | 383 kts | 19° |
| 2026-04-30 02:31 | 53.30749 | 50.93255 | 18790 ft | 387 kts | 16° |
| 2026-04-30 02:31 | 53.33274 | 50.94719 | 19481 ft | 389 kts | 17° |
| 2026-04-30 02:31 | 53.35832 | 50.96269 | 20255 ft | 390 kts | 17° |
| 2026-04-30 02:31 | 53.38344 | 50.97860 | 20831 ft | 395 kts | 18° |
| 2026-04-30 02:32 | 53.40914 | 50.99546 | 21382 ft | 401 kts | 19° |
| 2026-04-30 02:32 | 53.43519 | 51.01289 | 21905 ft | 407 kts | 19° |
| 2026-04-30 02:32 | 53.46161 | 51.03076 | 22459 ft | 411 kts | 19° |
| 2026-04-30 02:32 | 53.48805 | 51.04878 | 22984 ft | 416 kts | 19° |
| 2026-04-30 02:33 | 53.51512 | 51.06731 | 23457 ft | 422 kts | 19° |
| 2026-04-30 02:33 | 53.54231 | 51.08593 | 23944 ft | 427 kts | 19° |
| 2026-04-30 02:33 | 53.57006 | 51.10495 | 24438 ft | 432 kts | 19° |
| 2026-04-30 02:33 | 53.59809 | 51.12416 | 24896 ft | 437 kts | 19° |
| 2026-04-30 02:34 | 53.62622 | 51.14350 | 25352 ft | 442 kts | 19° |
| 2026-04-30 02:34 | 53.65466 | 51.16312 | 25806 ft | 447 kts | 19° |
| 2026-04-30 02:34 | 53.68364 | 51.18313 | 26262 ft | 452 kts | 19° |
| 2026-04-30 02:34 | 53.71287 | 51.20329 | 26700 ft | 457 kts | 20° |
| 2026-04-30 02:35 | 53.74231 | 51.22369 | 27120 ft | 462 kts | 19° |
| 2026-04-30 02:35 | 53.77209 | 51.24438 | 27543 ft | 467 kts | 19° |
| 2026-04-30 02:35 | 53.80220 | 51.26528 | 27940 ft | 471 kts | 20° |
| 2026-04-30 02:35 | 53.83254 | 51.28637 | 28330 ft | 476 kts | 20° |
| 2026-04-30 02:36 | 53.86316 | 51.30778 | 28707 ft | 481 kts | 19° |
| 2026-04-30 02:36 | 53.89427 | 51.32952 | 29081 ft | 486 kts | 20° |
| 2026-04-30 02:36 | 53.92549 | 51.35138 | 29488 ft | 490 kts | 20° |
| 2026-04-30 02:36 | 53.95687 | 51.37351 | 29858 ft | 494 kts | 21° |
| 2026-04-30 02:37 | 53.98729 | 51.40029 | 30225 ft | 499 kts | 31° |
| 2026-04-30 02:37 | 54.01559 | 51.43471 | 30639 ft | 501 kts | 42° |
| 2026-04-30 02:37 | 54.04039 | 51.47576 | 31081 ft | 498 kts | 52° |
| 2026-04-30 02:37 | 54.06227 | 51.52128 | 31567 ft | 496 kts | 56° |
| 2026-04-30 02:38 | 54.08287 | 51.56705 | 32029 ft | 495 kts | 57° |
| 2026-04-30 02:38 | 54.10359 | 51.61343 | 32518 ft | 493 kts | 56° |
| 2026-04-30 02:38 | 54.12459 | 51.65977 | 32965 ft | 493 kts | 56° |
| 2026-04-30 02:38 | 54.14551 | 51.70534 | 33386 ft | 492 kts | 56° |
| 2026-04-30 02:39 | 54.16664 | 51.75127 | 33737 ft | 493 kts | 56° |
| 2026-04-30 02:39 | 54.18784 | 51.79721 | 34025 ft | 494 kts | 56° |
| 2026-04-30 02:39 | 54.20911 | 51.84341 | 34299 ft | 496 kts | 56° |
| 2026-04-30 02:39 | 54.23016 | 51.88908 | 34566 ft | 497 kts | 56° |
| 2026-04-30 02:40 | 54.25144 | 51.93551 | 34849 ft | 498 kts | 56° |
| 2026-04-30 02:40 | 54.27300 | 51.98260 | 35050 ft | 499 kts | 56° |
| 2026-04-30 02:40 | 54.29417 | 52.02892 | 35114 ft | 498 kts | 55° |
| 2026-04-30 02:41 | 54.33654 | 52.12181 | 35137 ft | 498 kts | 55° |
| 2026-04-30 02:41 | 54.37904 | 52.21549 | 35125 ft | 499 kts | 56° |
| 2026-04-30 02:42 | 54.42136 | 52.30903 | 35134 ft | 498 kts | 55° |
| 2026-04-30 02:42 | 54.46395 | 52.40353 | 35118 ft | 499 kts | 56° |
| 2026-04-30 02:43 | 54.50629 | 52.49806 | 35122 ft | 500 kts | 56° |
| 2026-04-30 02:43 | 54.54830 | 52.59248 | 35119 ft | 501 kts | 56° |
| 2026-04-30 02:44 | 54.59041 | 52.68761 | 35107 ft | 501 kts | 57° |
| 2026-04-30 02:44 | 54.62740 | 52.78831 | 35125 ft | 495 kts | 68° |
| 2026-04-30 02:45 | 54.65352 | 52.89691 | 35119 ft | 486 kts | 79° |
| 2026-04-30 02:45 | 54.66981 | 53.00921 | 35130 ft | 482 kts | 85° |
| 2026-04-30 02:46 | 54.68447 | 53.12273 | 35127 ft | 485 kts | 84° |
| 2026-04-30 02:46 | 54.69967 | 53.23687 | 35142 ft | 484 kts | 84° |
| 2026-04-30 02:47 | 54.71518 | 53.35253 | 35144 ft | 485 kts | 84° |
| 2026-04-30 02:47 | 54.73061 | 53.46828 | 35158 ft | 485 kts | 84° |
| 2026-04-30 02:48 | 54.74597 | 53.58419 | 35159 ft | 485 kts | 84° |
| 2026-04-30 02:48 | 54.76129 | 53.70119 | 35140 ft | 485 kts | 85° |
| 2026-04-30 02:49 | 54.77654 | 53.81868 | 35159 ft | 485 kts | 85° |
| 2026-04-30 02:49 | 54.79153 | 53.93538 | 35145 ft | 484 kts | 85° |
| 2026-04-30 02:50 | 54.80664 | 54.05428 | 35095 ft | 485 kts | 85° |
| 2026-04-30 02:50 | 54.82171 | 54.17384 | 35130 ft | 488 kts | 85° |
| 2026-04-30 02:51 | 54.83666 | 54.29246 | 35138 ft | 488 kts | 85° |
| 2026-04-30 02:51 | 54.84416 | 54.35232 | 35254 ft | 488 kts | 85° |
| 2026-04-30 02:51 | 54.85151 | 54.41126 | 35117 ft | 487 kts | 85° |
| 2026-04-30 02:52 | 54.86611 | 54.52978 | 35217 ft | 489 kts | 85° |
| 2026-04-30 02:52 | 54.88062 | 54.64859 | 35174 ft | 491 kts | 85° |
| 2026-04-30 02:53 | 54.89522 | 54.76917 | 35173 ft | 489 kts | 87° |
| 2026-04-30 02:53 | 54.90947 | 54.88826 | 35167 ft | 489 kts | 86° |
| 2026-04-30 02:54 | 54.92364 | 55.00761 | 35153 ft | 490 kts | 86° |
| 2026-04-30 02:54 | 54.93771 | 55.12650 | 35156 ft | 489 kts | 87° |
| 2026-04-30 02:55 | 54.95152 | 55.24407 | 35089 ft | 490 kts | 86° |
| 2026-04-30 02:55 | 54.96515 | 55.36185 | 35212 ft | 490 kts | 86° |
| 2026-04-30 02:56 | 54.97884 | 55.48097 | 35113 ft | 492 kts | 86° |
| 2026-04-30 02:56 | 54.99240 | 55.60035 | 35154 ft | 494 kts | 86° |
| 2026-04-30 02:57 | 55.00573 | 55.71827 | 35160 ft | 494 kts | 87° |
| 2026-04-30 02:57 | 55.01879 | 55.83447 | 35167 ft | 492 kts | 88° |
| 2026-04-30 02:58 | 55.03194 | 55.95331 | 35166 ft | 493 kts | 87° |
| 2026-04-30 02:58 | 55.04476 | 56.07047 | 35155 ft | 497 kts | 87° |
| 2026-04-30 02:59 | 55.05837 | 56.19548 | 35166 ft | 497 kts | 87° |
| 2026-04-30 02:59 | 55.07135 | 56.31592 | 35165 ft | 496 kts | 87° |
| 2026-04-30 03:00 | 55.08394 | 56.43434 | 35168 ft | 499 kts | 87° |
| 2026-04-30 03:00 | 55.09652 | 56.55345 | 35164 ft | 499 kts | 87° |
| 2026-04-30 03:01 | 55.10926 | 56.67287 | 35161 ft | 497 kts | 88° |
| 2026-04-30 03:01 | 55.12228 | 56.79622 | 35161 ft | 500 kts | 88° |
| 2026-04-30 03:02 | 55.13562 | 56.92468 | 35173 ft | 498 kts | 88° |
| 2026-04-30 03:02 | 55.14768 | 57.04402 | 35153 ft | 501 kts | 88° |
| 2026-04-30 03:03 | 55.15969 | 57.16331 | 35165 ft | 501 kts | 88° |
| 2026-04-30 03:03 | 55.17790 | 57.34629 | 35149 ft | 499 kts | 88° |
| 2026-04-30 03:04 | 55.18954 | 57.46595 | 35163 ft | 502 kts | 88° |
| 2026-04-30 03:04 | 55.20115 | 57.58585 | 35150 ft | 502 kts | 88° |
| 2026-04-30 03:05 | 55.21269 | 57.70617 | 35154 ft | 502 kts | 89° |
| 2026-04-30 03:05 | 55.22408 | 57.82681 | 35147 ft | 502 kts | 89° |
| 2026-04-30 03:06 | 55.23528 | 57.94683 | 35153 ft | 502 kts | 89° |
| 2026-04-30 03:06 | 55.24644 | 58.06773 | 35153 ft | 503 kts | 89° |
| 2026-04-30 03:07 | 55.25754 | 58.18784 | 35152 ft | 503 kts | 88° |
| 2026-04-30 03:07 | 55.26876 | 58.30889 | 35152 ft | 504 kts | 88° |
| 2026-04-30 03:08 | 55.27984 | 58.43011 | 35158 ft | 502 kts | 88° |
| 2026-04-30 03:08 | 55.29060 | 58.55068 | 35168 ft | 504 kts | 88° |
| 2026-04-30 03:09 | 55.30132 | 58.67168 | 35168 ft | 503 kts | 88° |
| 2026-04-30 03:09 | 55.31191 | 58.79324 | 35163 ft | 506 kts | 89° |
| 2026-04-30 03:10 | 55.32246 | 58.91521 | 35157 ft | 505 kts | 89° |
| 2026-04-30 03:10 | 55.33283 | 59.03632 | 35151 ft | 505 kts | 89° |
| 2026-04-30 03:11 | 55.34306 | 59.15866 | 35137 ft | 507 kts | 88° |
| 2026-04-30 03:11 | 55.35326 | 59.28104 | 35124 ft | 508 kts | 89° |
| 2026-04-30 03:12 | 55.36329 | 59.40305 | 35129 ft | 508 kts | 88° |
| 2026-04-30 03:12 | 55.37316 | 59.52480 | 35131 ft | 507 kts | 88° |
| 2026-04-30 03:13 | 55.38294 | 59.64745 | 35074 ft | 507 kts | 88° |
| 2026-04-30 03:13 | 55.38781 | 59.70932 | 34962 ft | 508 kts | 88° |
| 2026-04-30 03:13 | 55.39224 | 59.77069 | 34797 ft | 506 kts | 92° |
| 2026-04-30 03:14 | 55.39486 | 59.83173 | 34443 ft | 503 kts | 94° |
| 2026-04-30 03:14 | 55.39660 | 59.89336 | 33575 ft | 509 kts | 95° |
| 2026-04-30 03:14 | 55.39808 | 59.95490 | 32689 ft | 515 kts | 95° |
| 2026-04-30 03:14 | 55.39965 | 60.01833 | 31970 ft | 515 kts | 94° |
| 2026-04-30 03:15 | 55.40130 | 60.08049 | 31361 ft | 513 kts | 94° |
| 2026-04-30 03:15 | 55.40296 | 60.14278 | 30826 ft | 509 kts | 94° |
| 2026-04-30 03:15 | 55.40439 | 60.20457 | 30346 ft | 503 kts | 95° |
| 2026-04-30 03:15 | 55.40506 | 60.26546 | 29812 ft | 498 kts | 96° |
| 2026-04-30 03:16 | 55.40543 | 60.32627 | 29292 ft | 494 kts | 96° |
| 2026-04-30 03:16 | 55.40573 | 60.38552 | 28850 ft | 487 kts | 95° |
| 2026-04-30 03:16 | 55.40604 | 60.44459 | 28486 ft | 480 kts | 95° |
| 2026-04-30 03:16 | 55.40637 | 60.50267 | 28116 ft | 472 kts | 95° |
| 2026-04-30 03:17 | 55.40667 | 60.55986 | 27713 ft | 467 kts | 95° |
| 2026-04-30 03:17 | 55.40698 | 60.61628 | 27288 ft | 462 kts | 95° |
| 2026-04-30 03:17 | 55.40721 | 60.67289 | 26867 ft | 456 kts | 96° |
| 2026-04-30 03:17 | 55.40745 | 60.72825 | 26454 ft | 451 kts | 96° |
| 2026-04-30 03:18 | 55.40770 | 60.78284 | 26060 ft | 445 kts | 96° |
| 2026-04-30 03:18 | 55.40794 | 60.83679 | 25652 ft | 440 kts | 95° |
| 2026-04-30 03:18 | 55.40857 | 60.88987 | 25229 ft | 437 kts | 94° |
| 2026-04-30 03:18 | 55.40931 | 60.94282 | 24830 ft | 432 kts | 94° |
| 2026-04-30 03:19 | 55.41003 | 60.99529 | 24441 ft | 427 kts | 94° |
| 2026-04-30 03:19 | 55.41069 | 61.04780 | 24033 ft | 422 kts | 94° |
| 2026-04-30 03:19 | 55.41296 | 61.09914 | 23533 ft | 428 kts | 81° |
| 2026-04-30 03:19 | 55.42395 | 61.14774 | 22706 ft | 441 kts | 61° |
| 2026-04-30 03:20 | 55.43935 | 61.19488 | 21949 ft | 443 kts | 63° |
| 2026-04-30 03:20 | 55.45074 | 61.24371 | 21054 ft | 431 kts | 82° |
| 2026-04-30 03:20 | 55.45170 | 61.29442 | 20095 ft | 409 kts | 106° |
| 2026-04-30 03:20 | 55.44205 | 61.33904 | 19119 ft | 381 kts | 131° |
| 2026-04-30 03:21 | 55.42530 | 61.37363 | 18127 ft | 364 kts | 141° |
| 2026-04-30 03:21 | 55.40836 | 61.40572 | 16982 ft | 367 kts | 135° |
| 2026-04-30 03:21 | 55.39550 | 61.44477 | 15831 ft | 374 kts | 121° |
| 2026-04-30 03:21 | 55.38513 | 61.48603 | 14845 ft | 369 kts | 117° |
| 2026-04-30 03:22 | 55.37635 | 61.52828 | 13838 ft | 366 kts | 113° |
| 2026-04-30 03:22 | 55.36913 | 61.57016 | 12865 ft | 361 kts | 109° |
| 2026-04-30 03:22 | 55.36270 | 61.61247 | 11899 ft | 356 kts | 108° |
| 2026-04-30 03:22 | 55.35665 | 61.65385 | 10956 ft | 350 kts | 108° |
| 2026-04-30 03:23 | 55.35075 | 61.69430 | 10098 ft | 342 kts | 108° |
| 2026-04-30 03:23 | 55.34497 | 61.73378 | 9586 ft | 323 kts | 108° |
| 2026-04-30 03:23 | 55.33949 | 61.77079 | 9115 ft | 307 kts | 108° |
| 2026-04-30 03:23 | 55.33406 | 61.80712 | 8640 ft | 293 kts | 108° |
| 2026-04-30 03:24 | 55.32900 | 61.84081 | 8188 ft | 281 kts | 108° |
| 2026-04-30 03:24 | 55.32226 | 61.87242 | 7653 ft | 267 kts | 129° |
| 2026-04-30 03:24 | 55.30743 | 61.89227 | 7142 ft | 246 kts | 168° |
| 2026-04-30 03:24 | 55.28962 | 61.89003 | 6647 ft | 229 kts | 210° |
| 2026-04-30 03:25 | 55.27945 | 61.87047 | 6285 ft | 218 kts | 251° |
| 2026-04-30 03:25 | 55.27949 | 61.84481 | 5927 ft | 213 kts | 288° |
| 2026-04-30 03:25 | 55.28481 | 61.82080 | 5556 ft | 206 kts | 281° |
| 2026-04-30 03:25 | 55.28503 | 61.79647 | 5175 ft | 199 kts | 258° |
| 2026-04-30 03:26 | 55.28113 | 61.77368 | 4770 ft | 197 kts | 248° |
| 2026-04-30 03:26 | 55.27568 | 61.75245 | 4497 ft | 186 kts | 250° |
| 2026-04-30 03:26 | 55.27446 | 61.73071 | 4141 ft | 177 kts | 275° |
| 2026-04-30 03:26 | 55.27674 | 61.71013 | 3735 ft | 167 kts | 285° |
| 2026-04-30 03:27 | 55.27982 | 61.69113 | 3423 ft | 159 kts | 286° |
| 2026-04-30 03:27 | 55.28260 | 61.67304 | 3109 ft | 152 kts | 284° |
| 2026-04-30 03:27 | 55.28499 | 61.65608 | 2925 ft | 136 kts | 283° |
| 2026-04-30 03:27 | 55.28702 | 61.63989 | 2538 ft | 137 kts | 282° |
| 2026-04-30 03:28 | 55.28877 | 61.62332 | 2161 ft | 136 kts | 282° |
| 2026-04-30 03:28 | 55.29103 | 61.60791 | 1895 ft | 128 kts | 287° |
| 2026-04-30 03:28 | 55.29335 | 61.59289 | 1602 ft | 127 kts | 285° |
| 2026-04-30 03:28 | 55.29557 | 61.57779 | 1454 ft | 135 kts | 285° |
| 2026-04-30 03:29 | 55.29778 | 61.56106 | 1259 ft | 141 kts | 284° |
| 2026-04-30 03:29 | 55.30009 | 61.54457 | 988 ft | 140 kts | 285° |
| 2026-04-30 03:29 | 55.30232 | 61.52825 | 756 ft | 132 kts | 284° |
| 2026-04-30 03:29 | 55.30422 | 61.51490 | 744 ft | 78 kts | 284° |
| 2026-04-30 03:30 | 55.30503 | 61.50916 | 747 ft | 39 kts | 286° |
| 2026-04-30 03:30 | 55.30563 | 61.50482 | 750 ft | 34 kts | 282° |